sensor_id;sensor_type;location;lat;lon;timestamp;P1;durP1;ratioP1;P2;durP2;ratioP2
73893;SDS011;62227;50.534;12.784;2022-07-29T00:03:13;12.20;;;3.55;;
73893;SDS011;62227;50.534;12.784;2022-07-29T00:08:32;12.73;;;3.22;;
73893;SDS011;62227;50.534;12.784;2022-07-29T00:13:52;10.77;;;3.15;;
73893;SDS011;62227;50.534;12.784;2022-07-29T00:24:30;9.23;;;2.63;;
73893;SDS011;62227;50.534;12.784;2022-07-29T00:29:49;11.85;;;3.58;;
73893;SDS011;62227;50.534;12.784;2022-07-29T00:35:08;10.85;;;2.88;;
73893;SDS011;62227;50.534;12.784;2022-07-29T00:40:47;8.95;;;2.78;;
73893;SDS011;62227;50.534;12.784;2022-07-29T00:46:07;5.68;;;2.33;;
73893;SDS011;62227;50.534;12.784;2022-07-29T00:56:46;10.68;;;3.10;;
73893;SDS011;62227;50.534;12.784;2022-07-29T01:07:25;9.93;;;3.05;;
73893;SDS011;62227;50.534;12.784;2022-07-29T01:12:46;15.90;;;3.95;;
73893;SDS011;62227;50.534;12.784;2022-07-29T01:23:44;10.38;;;2.78;;
73893;SDS011;62227;50.534;12.784;2022-07-29T01:40:22;11.18;;;3.15;;
73893;SDS011;62227;50.534;12.784;2022-07-29T01:46:02;14.82;;;3.95;;
73893;SDS011;62227;50.534;12.784;2022-07-29T01:51:25;12.40;;;3.10;;
73893;SDS011;62227;50.534;12.784;2022-07-29T01:56:51;18.33;;;4.80;;
73893;SDS011;62227;50.534;12.784;2022-07-29T02:02:15;11.68;;;3.22;;
73893;SDS011;62227;50.534;12.784;2022-07-29T02:07:35;15.02;;;3.90;;
73893;SDS011;62227;50.534;12.784;2022-07-29T02:12:56;11.23;;;3.30;;
73893;SDS011;62227;50.534;12.784;2022-07-29T02:18:16;9.90;;;3.10;;
73893;SDS011;62227;50.534;12.784;2022-07-29T02:23:37;10.93;;;3.28;;
73893;SDS011;62227;50.534;12.784;2022-07-29T02:28:57;12.52;;;3.10;;
73893;SDS011;62227;50.534;12.784;2022-07-29T02:34:19;15.13;;;3.58;;
73893;SDS011;62227;50.534;12.784;2022-07-29T02:39:40;11.27;;;3.25;;
73893;SDS011;62227;50.534;12.784;2022-07-29T02:45:02;15.52;;;3.70;;
73893;SDS011;62227;50.534;12.784;2022-07-29T02:50:29;14.55;;;3.22;;
73893;SDS011;62227;50.534;12.784;2022-07-29T02:55:55;11.05;;;3.33;;
73893;SDS011;62227;50.534;12.784;2022-07-29T03:01:20;10.38;;;3.33;;
73893;SDS011;62227;50.534;12.784;2022-07-29T03:06:41;16.60;;;3.40;;
73893;SDS011;62227;50.534;12.784;2022-07-29T03:12:01;34.58;;;7.82;;
73893;SDS011;62227;50.534;12.784;2022-07-29T03:17:23;11.77;;;3.28;;
73893;SDS011;62227;50.534;12.784;2022-07-29T03:22:43;9.90;;;3.15;;
73893;SDS011;62227;50.534;12.784;2022-07-29T03:28:06;8.88;;;3.10;;
73893;SDS011;62227;50.534;12.784;2022-07-29T03:33:25;5.40;;;2.63;;
73893;SDS011;62227;50.534;12.784;2022-07-29T03:38:45;9.88;;;3.00;;
73893;SDS011;62227;50.534;12.784;2022-07-29T03:44:06;12.60;;;3.65;;
73893;SDS011;62227;50.534;12.784;2022-07-29T03:49:27;11.95;;;3.22;;
73893;SDS011;62227;50.534;12.784;2022-07-29T03:54:48;9.32;;;2.80;;
73893;SDS011;62227;50.534;12.784;2022-07-29T04:00:08;11.30;;;3.20;;
73893;SDS011;62227;50.534;12.784;2022-07-29T04:05:28;11.07;;;3.35;;
73893;SDS011;62227;50.534;12.784;2022-07-29T04:10:48;12.07;;;3.55;;
73893;SDS011;62227;50.534;12.784;2022-07-29T04:16:08;16.73;;;4.40;;
73893;SDS011;62227;50.534;12.784;2022-07-29T04:21:27;13.88;;;3.58;;
73893;SDS011;62227;50.534;12.784;2022-07-29T04:32:06;16.98;;;4.40;;
73893;SDS011;62227;50.534;12.784;2022-07-29T04:37:25;10.93;;;3.47;;
73893;SDS011;62227;50.534;12.784;2022-07-29T04:42:44;13.10;;;3.55;;
73893;SDS011;62227;50.534;12.784;2022-07-29T04:48:04;14.85;;;3.55;;
73893;SDS011;62227;50.534;12.784;2022-07-29T04:53:36;17.23;;;3.90;;
73893;SDS011;62227;50.534;12.784;2022-07-29T04:58:55;14.57;;;3.95;;
73893;SDS011;62227;50.534;12.784;2022-07-29T05:04:15;17.80;;;3.88;;
73893;SDS011;62227;50.534;12.784;2022-07-29T05:09:34;11.75;;;3.28;;
73893;SDS011;62227;50.534;12.784;2022-07-29T05:14:53;19.92;;;5.00;;
73893;SDS011;62227;50.534;12.784;2022-07-29T05:20:13;13.43;;;3.40;;
73893;SDS011;62227;50.534;12.784;2022-07-29T05:25:33;10.70;;;3.33;;
73893;SDS011;62227;50.534;12.784;2022-07-29T05:30:51;14.63;;;3.80;;
73893;SDS011;62227;50.534;12.784;2022-07-29T05:36:11;12.45;;;3.70;;
73893;SDS011;62227;50.534;12.784;2022-07-29T05:41:33;16.50;;;4.30;;
73893;SDS011;62227;50.534;12.784;2022-07-29T05:46:53;8.45;;;2.92;;
73893;SDS011;62227;50.534;12.784;2022-07-29T05:52:12;10.85;;;2.95;;
73893;SDS011;62227;50.534;12.784;2022-07-29T05:57:32;13.20;;;3.22;;
73893;SDS011;62227;50.534;12.784;2022-07-29T06:02:51;15.48;;;3.90;;
73893;SDS011;62227;50.534;12.784;2022-07-29T06:08:12;21.27;;;5.18;;
73893;SDS011;62227;50.534;12.784;2022-07-29T06:13:30;12.05;;;3.47;;
73893;SDS011;62227;50.534;12.784;2022-07-29T06:18:51;12.60;;;3.65;;
73893;SDS011;62227;50.534;12.784;2022-07-29T06:24:11;10.77;;;3.53;;
73893;SDS011;62227;50.534;12.784;2022-07-29T06:29:32;9.23;;;3.10;;
73893;SDS011;62227;50.534;12.784;2022-07-29T06:34:50;15.18;;;4.30;;
73893;SDS011;62227;50.534;12.784;2022-07-29T06:40:11;16.30;;;4.20;;
73893;SDS011;62227;50.534;12.784;2022-07-29T06:45:49;16.93;;;3.77;;
73893;SDS011;62227;50.534;12.784;2022-07-29T06:51:09;17.08;;;3.90;;
73893;SDS011;62227;50.534;12.784;2022-07-29T06:56:29;13.65;;;3.83;;
73893;SDS011;62227;50.534;12.784;2022-07-29T07:01:50;21.85;;;5.72;;
73893;SDS011;62227;50.534;12.784;2022-07-29T07:07:09;15.60;;;3.67;;
73893;SDS011;62227;50.534;12.784;2022-07-29T07:12:28;15.02;;;3.92;;
73893;SDS011;62227;50.534;12.784;2022-07-29T07:17:48;11.63;;;4.55;;
73893;SDS011;62227;50.534;12.784;2022-07-29T07:23:07;16.38;;;4.78;;
73893;SDS011;62227;50.534;12.784;2022-07-29T07:28:27;14.75;;;4.28;;
73893;SDS011;62227;50.534;12.784;2022-07-29T07:33:47;14.10;;;4.28;;
73893;SDS011;62227;50.534;12.784;2022-07-29T07:39:06;18.63;;;4.72;;
73893;SDS011;62227;50.534;12.784;2022-07-29T07:44:26;14.35;;;4.68;;
73893;SDS011;62227;50.534;12.784;2022-07-29T07:49:47;11.40;;;3.85;;
73893;SDS011;62227;50.534;12.784;2022-07-29T07:55:07;16.65;;;4.22;;
73893;SDS011;62227;50.534;12.784;2022-07-29T08:00:26;15.50;;;4.60;;
73893;SDS011;62227;50.534;12.784;2022-07-29T08:05:45;16.52;;;4.60;;
73893;SDS011;62227;50.534;12.784;2022-07-29T08:11:05;18.42;;;4.45;;
73893;SDS011;62227;50.534;12.784;2022-07-29T08:16:25;15.93;;;4.50;;
73893;SDS011;62227;50.534;12.784;2022-07-29T08:21:44;15.70;;;4.40;;
73893;SDS011;62227;50.534;12.784;2022-07-29T08:27:04;8.23;;;2.92;;
73893;SDS011;62227;50.534;12.784;2022-07-29T08:32:23;16.08;;;4.82;;
73893;SDS011;62227;50.534;12.784;2022-07-29T08:37:43;11.80;;;3.85;;
73893;SDS011;62227;50.534;12.784;2022-07-29T08:43:06;15.68;;;4.35;;
73893;SDS011;62227;50.534;12.784;2022-07-29T08:48:29;14.93;;;4.20;;
73893;SDS011;62227;50.534;12.784;2022-07-29T08:53:48;11.07;;;3.30;;
73893;SDS011;62227;50.534;12.784;2022-07-29T08:59:08;10.98;;;2.95;;
73893;SDS011;62227;50.534;12.784;2022-07-29T09:04:32;8.98;;;2.90;;
73893;SDS011;62227;50.534;12.784;2022-07-29T09:09:53;7.50;;;2.83;;
73893;SDS011;62227;50.534;12.784;2022-07-29T09:15:12;12.95;;;3.40;;
73893;SDS011;62227;50.534;12.784;2022-07-29T09:20:32;11.98;;;3.40;;
73893;SDS011;62227;50.534;12.784;2022-07-29T09:26:10;7.88;;;2.85;;
73893;SDS011;62227;50.534;12.784;2022-07-29T09:31:35;10.13;;;3.28;;
73893;SDS011;62227;50.534;12.784;2022-07-29T09:36:57;9.23;;;2.83;;
73893;SDS011;62227;50.534;12.784;2022-07-29T09:42:17;16.83;;;4.32;;
73893;SDS011;62227;50.534;12.784;2022-07-29T09:47:47;11.38;;;3.00;;
73893;SDS011;62227;50.534;12.784;2022-07-29T09:53:08;11.40;;;3.08;;
73893;SDS011;62227;50.534;12.784;2022-07-29T09:58:30;12.35;;;4.00;;
73893;SDS011;62227;50.534;12.784;2022-07-29T10:03:50;12.60;;;4.43;;
73893;SDS011;62227;50.534;12.784;2022-07-29T10:09:10;10.43;;;3.90;;
73893;SDS011;62227;50.534;12.784;2022-07-29T10:14:31;12.35;;;4.32;;
73893;SDS011;62227;50.534;12.784;2022-07-29T10:19:52;12.75;;;4.25;;
73893;SDS011;62227;50.534;12.784;2022-07-29T10:25:12;10.95;;;3.47;;
73893;SDS011;62227;50.534;12.784;2022-07-29T10:30:32;13.15;;;4.05;;
73893;SDS011;62227;50.534;12.784;2022-07-29T10:36:11;14.73;;;4.43;;
73893;SDS011;62227;50.534;12.784;2022-07-29T10:47:26;12.60;;;3.85;;
73893;SDS011;62227;50.534;12.784;2022-07-29T10:58:13;11.90;;;4.20;;
73893;SDS011;62227;50.534;12.784;2022-07-29T11:03:43;10.35;;;3.67;;
73893;SDS011;62227;50.534;12.784;2022-07-29T11:09:18;14.45;;;4.75;;
73893;SDS011;62227;50.534;12.784;2022-07-29T11:31:40;13.65;;;4.05;;
73893;SDS011;62227;50.534;12.784;2022-07-29T11:53:09;13.65;;;4.32;;
73893;SDS011;62227;50.534;12.784;2022-07-29T11:58:30;14.48;;;4.75;;
73893;SDS011;62227;50.534;12.784;2022-07-29T12:04:01;14.07;;;4.90;;
73893;SDS011;62227;50.534;12.784;2022-07-29T12:09:22;14.20;;;4.60;;
73893;SDS011;62227;50.534;12.784;2022-07-29T12:14:45;13.02;;;4.30;;
73893;SDS011;62227;50.534;12.784;2022-07-29T12:20:05;13.93;;;4.85;;
73893;SDS011;62227;50.534;12.784;2022-07-29T12:25:25;11.98;;;4.40;;
73893;SDS011;62227;50.534;12.784;2022-07-29T12:36:33;15.27;;;5.13;;
73893;SDS011;62227;50.534;12.784;2022-07-29T12:41:52;27.35;;;8.02;;
73893;SDS011;62227;50.534;12.784;2022-07-29T12:47:13;13.98;;;4.50;;
73893;SDS011;62227;50.534;12.784;2022-07-29T12:52:33;13.85;;;4.63;;
73893;SDS011;62227;50.534;12.784;2022-07-29T12:57:54;21.15;;;5.80;;
73893;SDS011;62227;50.534;12.784;2022-07-29T13:03:13;19.95;;;5.32;;
73893;SDS011;62227;50.534;12.784;2022-07-29T13:08:33;14.40;;;5.05;;
73893;SDS011;62227;50.534;12.784;2022-07-29T13:13:52;19.98;;;5.40;;
73893;SDS011;62227;50.534;12.784;2022-07-29T13:19:12;13.18;;;4.50;;
73893;SDS011;62227;50.534;12.784;2022-07-29T13:24:31;12.75;;;4.05;;
73893;SDS011;62227;50.534;12.784;2022-07-29T13:29:51;16.17;;;5.22;;
73893;SDS011;62227;50.534;12.784;2022-07-29T13:35:11;14.43;;;4.90;;
73893;SDS011;62227;50.534;12.784;2022-07-29T13:40:31;16.73;;;5.57;;
73893;SDS011;62227;50.534;12.784;2022-07-29T13:45:52;18.67;;;5.53;;
73893;SDS011;62227;50.534;12.784;2022-07-29T13:51:14;16.13;;;5.60;;
73893;SDS011;62227;50.534;12.784;2022-07-29T13:56:33;18.00;;;5.72;;
73893;SDS011;62227;50.534;12.784;2022-07-29T14:01:53;31.92;;;9.63;;
73893;SDS011;62227;50.534;12.784;2022-07-29T14:07:12;18.05;;;6.50;;
73893;SDS011;62227;50.534;12.784;2022-07-29T14:12:32;15.93;;;5.30;;
73893;SDS011;62227;50.534;12.784;2022-07-29T14:18:01;16.58;;;5.10;;
73893;SDS011;62227;50.534;12.784;2022-07-29T14:23:31;20.70;;;6.45;;
73893;SDS011;62227;50.534;12.784;2022-07-29T14:28:50;17.90;;;5.45;;
73893;SDS011;62227;50.534;12.784;2022-07-29T14:34:10;21.40;;;5.57;;
73893;SDS011;62227;50.534;12.784;2022-07-29T14:39:29;22.60;;;6.00;;
73893;SDS011;62227;50.534;12.784;2022-07-29T14:44:49;15.25;;;4.65;;
73893;SDS011;62227;50.534;12.784;2022-07-29T14:50:08;15.40;;;5.40;;
73893;SDS011;62227;50.534;12.784;2022-07-29T14:55:28;16.88;;;5.57;;
73893;SDS011;62227;50.534;12.784;2022-07-29T15:00:47;17.73;;;5.20;;
73893;SDS011;62227;50.534;12.784;2022-07-29T15:06:07;19.23;;;5.43;;
73893;SDS011;62227;50.534;12.784;2022-07-29T15:11:26;17.85;;;5.50;;
73893;SDS011;62227;50.534;12.784;2022-07-29T15:16:45;17.67;;;5.57;;
73893;SDS011;62227;50.534;12.784;2022-07-29T15:22:03;36.47;;;8.80;;
73893;SDS011;62227;50.534;12.784;2022-07-29T15:27:26;16.67;;;4.97;;
73893;SDS011;62227;50.534;12.784;2022-07-29T15:32:45;16.65;;;5.35;;
73893;SDS011;62227;50.534;12.784;2022-07-29T15:38:05;17.17;;;5.35;;
73893;SDS011;62227;50.534;12.784;2022-07-29T15:43:24;17.67;;;5.15;;
73893;SDS011;62227;50.534;12.784;2022-07-29T15:48:44;18.25;;;5.78;;
73893;SDS011;62227;50.534;12.784;2022-07-29T15:54:04;11.05;;;4.00;;
73893;SDS011;62227;50.534;12.784;2022-07-29T15:59:35;20.45;;;6.18;;
73893;SDS011;62227;50.534;12.784;2022-07-29T16:04:54;17.08;;;5.53;;
73893;SDS011;62227;50.534;12.784;2022-07-29T16:10:13;18.38;;;5.07;;
73893;SDS011;62227;50.534;12.784;2022-07-29T16:15:33;16.42;;;5.20;;
73893;SDS011;62227;50.534;12.784;2022-07-29T16:20:52;15.80;;;4.95;;
73893;SDS011;62227;50.534;12.784;2022-07-29T16:26:12;17.38;;;5.18;;
73893;SDS011;62227;50.534;12.784;2022-07-29T16:31:34;14.65;;;4.65;;
73893;SDS011;62227;50.534;12.784;2022-07-29T16:36:53;12.48;;;4.43;;
73893;SDS011;62227;50.534;12.784;2022-07-29T16:42:13;15.27;;;5.05;;
73893;SDS011;62227;50.534;12.784;2022-07-29T16:47:32;19.23;;;5.40;;
73893;SDS011;62227;50.534;12.784;2022-07-29T16:52:52;17.98;;;5.38;;
73893;SDS011;62227;50.534;12.784;2022-07-29T16:58:12;15.45;;;4.82;;
73893;SDS011;62227;50.534;12.784;2022-07-29T17:03:31;20.60;;;5.50;;
73893;SDS011;62227;50.534;12.784;2022-07-29T17:08:50;20.00;;;6.05;;
73893;SDS011;62227;50.534;12.784;2022-07-29T17:14:10;22.35;;;6.47;;
73893;SDS011;62227;50.534;12.784;2022-07-29T17:19:30;18.67;;;5.32;;
73893;SDS011;62227;50.534;12.784;2022-07-29T17:24:51;12.10;;;4.63;;
73893;SDS011;62227;50.534;12.784;2022-07-29T17:30:10;21.02;;;5.93;;
73893;SDS011;62227;50.534;12.784;2022-07-29T17:35:30;20.35;;;6.82;;
73893;SDS011;62227;50.534;12.784;2022-07-29T17:41:08;22.20;;;7.40;;
73893;SDS011;62227;50.534;12.784;2022-07-29T17:46:27;16.70;;;5.60;;
73893;SDS011;62227;50.534;12.784;2022-07-29T17:51:46;19.70;;;5.75;;
73893;SDS011;62227;50.534;12.784;2022-07-29T17:57:06;18.38;;;5.38;;
73893;SDS011;62227;50.534;12.784;2022-07-29T18:02:26;17.88;;;5.85;;
73893;SDS011;62227;50.534;12.784;2022-07-29T18:07:46;14.02;;;5.53;;
73893;SDS011;62227;50.534;12.784;2022-07-29T18:13:05;19.52;;;5.88;;
73893;SDS011;62227;50.534;12.784;2022-07-29T18:18:25;14.77;;;4.20;;
73893;SDS011;62227;50.534;12.784;2022-07-29T18:23:45;16.13;;;5.38;;
73893;SDS011;62227;50.534;12.784;2022-07-29T18:29:08;14.65;;;5.28;;
73893;SDS011;62227;50.534;12.784;2022-07-29T18:34:27;14.07;;;5.43;;
73893;SDS011;62227;50.534;12.784;2022-07-29T18:39:47;18.60;;;5.70;;
73893;SDS011;62227;50.534;12.784;2022-07-29T18:45:07;11.73;;;4.95;;
73893;SDS011;62227;50.534;12.784;2022-07-29T18:50:27;14.93;;;5.07;;
73893;SDS011;62227;50.534;12.784;2022-07-29T18:55:47;13.02;;;5.50;;
73893;SDS011;62227;50.534;12.784;2022-07-29T19:01:06;24.27;;;9.05;;
73893;SDS011;62227;50.534;12.784;2022-07-29T19:06:25;11.90;;;5.30;;
73893;SDS011;62227;50.534;12.784;2022-07-29T19:11:45;17.73;;;6.22;;
73893;SDS011;62227;50.534;12.784;2022-07-29T19:17:05;20.65;;;5.60;;
73893;SDS011;62227;50.534;12.784;2022-07-29T19:22:24;27.48;;;8.77;;
73893;SDS011;62227;50.534;12.784;2022-07-29T19:27:44;14.85;;;6.40;;
73893;SDS011;62227;50.534;12.784;2022-07-29T19:33:04;22.33;;;7.70;;
73893;SDS011;62227;50.534;12.784;2022-07-29T19:38:31;24.25;;;8.05;;
73893;SDS011;62227;50.534;12.784;2022-07-29T19:43:54;21.42;;;8.68;;
73893;SDS011;62227;50.534;12.784;2022-07-29T19:49:13;30.60;;;8.95;;
73893;SDS011;62227;50.534;12.784;2022-07-29T19:54:33;18.90;;;7.22;;
73893;SDS011;62227;50.534;12.784;2022-07-29T19:59:52;20.85;;;8.27;;
73893;SDS011;62227;50.534;12.784;2022-07-29T20:05:30;18.58;;;7.20;;
73893;SDS011;62227;50.534;12.784;2022-07-29T20:10:49;24.27;;;8.27;;
73893;SDS011;62227;50.534;12.784;2022-07-29T20:16:09;19.92;;;8.55;;
73893;SDS011;62227;50.534;12.784;2022-07-29T20:21:27;22.50;;;7.90;;
73893;SDS011;62227;50.534;12.784;2022-07-29T20:26:47;21.85;;;8.35;;
73893;SDS011;62227;50.534;12.784;2022-07-29T20:32:07;17.05;;;7.13;;
73893;SDS011;62227;50.534;12.784;2022-07-29T20:37:27;21.88;;;7.80;;
73893;SDS011;62227;50.534;12.784;2022-07-29T20:42:45;19.23;;;7.07;;
73893;SDS011;62227;50.534;12.784;2022-07-29T20:48:05;17.20;;;7.07;;
73893;SDS011;62227;50.534;12.784;2022-07-29T20:53:25;16.67;;;7.13;;
73893;SDS011;62227;50.534;12.784;2022-07-29T20:58:45;18.13;;;7.13;;
73893;SDS011;62227;50.534;12.784;2022-07-29T21:04:03;17.85;;;7.55;;
73893;SDS011;62227;50.534;12.784;2022-07-29T21:09:23;17.13;;;7.15;;
73893;SDS011;62227;50.534;12.784;2022-07-29T21:14:53;17.23;;;6.95;;
73893;SDS011;62227;50.534;12.784;2022-07-29T21:20:17;20.10;;;8.35;;
73893;SDS011;62227;50.534;12.784;2022-07-29T21:25:37;20.35;;;8.82;;
73893;SDS011;62227;50.534;12.784;2022-07-29T21:30:58;20.02;;;7.65;;
73893;SDS011;62227;50.534;12.784;2022-07-29T21:36:19;19.98;;;8.13;;
73893;SDS011;62227;50.534;12.784;2022-07-29T21:41:39;18.25;;;8.10;;
73893;SDS011;62227;50.534;12.784;2022-07-29T21:46:58;20.70;;;8.68;;
73893;SDS011;62227;50.534;12.784;2022-07-29T21:52:17;26.73;;;9.80;;
73893;SDS011;62227;50.534;12.784;2022-07-29T21:57:36;33.20;;;11.05;;
73893;SDS011;62227;50.534;12.784;2022-07-29T22:02:56;21.85;;;9.55;;
73893;SDS011;62227;50.534;12.784;2022-07-29T22:08:15;22.25;;;9.00;;
73893;SDS011;62227;50.534;12.784;2022-07-29T22:13:34;21.65;;;8.27;;
73893;SDS011;62227;50.534;12.784;2022-07-29T22:18:54;21.38;;;8.02;;
73893;SDS011;62227;50.534;12.784;2022-07-29T22:24:13;13.32;;;6.50;;
73893;SDS011;62227;50.534;12.784;2022-07-29T22:29:32;21.33;;;7.13;;
73893;SDS011;62227;50.534;12.784;2022-07-29T22:34:52;21.02;;;7.65;;
73893;SDS011;62227;50.534;12.784;2022-07-29T22:40:11;20.52;;;7.97;;
73893;SDS011;62227;50.534;12.784;2022-07-29T22:45:32;21.33;;;7.10;;
73893;SDS011;62227;50.534;12.784;2022-07-29T22:50:51;22.63;;;7.15;;
73893;SDS011;62227;50.534;12.784;2022-07-29T22:56:11;16.17;;;6.05;;
73893;SDS011;62227;50.534;12.784;2022-07-29T23:01:30;15.98;;;5.88;;
73893;SDS011;62227;50.534;12.784;2022-07-29T23:06:49;14.65;;;5.65;;
73893;SDS011;62227;50.534;12.784;2022-07-29T23:12:08;15.77;;;6.20;;
73893;SDS011;62227;50.534;12.784;2022-07-29T23:17:29;14.07;;;5.22;;
73893;SDS011;62227;50.534;12.784;2022-07-29T23:22:48;20.20;;;7.00;;
73893;SDS011;62227;50.534;12.784;2022-07-29T23:28:09;16.13;;;6.45;;
73893;SDS011;62227;50.534;12.784;2022-07-29T23:33:28;17.77;;;6.65;;
73893;SDS011;62227;50.534;12.784;2022-07-29T23:38:48;15.77;;;6.15;;
73893;SDS011;62227;50.534;12.784;2022-07-29T23:44:07;17.75;;;6.07;;
73893;SDS011;62227;50.534;12.784;2022-07-29T23:49:27;15.80;;;6.55;;
73893;SDS011;62227;50.534;12.784;2022-07-29T23:54:46;14.20;;;5.95;;
